Strona główna
METAR-TAF:

METAR-TAF

Lotnisko :

Port lotniczy Frankfurt-Hahn

Hahn, Niemcy

Szerokość geograficzna: 49-57N, Długość geograficzna: 007-16E, wysokość: 491 m

Aktualna obserwacja pogody

Raport powstał 33 minut temu, godzina 04:20 UTC
Wiatr 3 kt od wschodnio-południowy wschód, zmienny między wschód i południowo-południowy wschód
Temperatura 18°C
Wilgotność 68%
Ciśnienie 1024 hPa
Widzialność 10 km lub więcej
Brak chmur poniżej 1500 m i brak chmur cumulonimbus

METAR: EDFH 230420Z 12003KT 090V160 CAVOK 18/12 Q1024

czas: 06:53 (04:53 UTC)

Prognoza

Raport powstał 5 godziny i 53 minut temu, godzina 23:00 UTC
Prognoza ważna od 23 godzina 00 UTC do 23 godzina 24 UTC
Wiatr 4 kt od wschodnio-południowy wschód
Widzialność 10 km lub więcej
Brak chmur poniżej 1500 m i brak chmur cumulonimbus
Stopniowe zmiany
od 23 godzina 07 UTC do 23 godzina 10 UTC
Wiatr 9 kt od południowy wschód

TAF: EDFH 222300Z 2300/2324 12004KT CAVOK BECMG 2307/2310 13009KT

Obserwacja i prognoza pogody dla ponad 4000 lotnisk (raport METAR i TAF).

Dostępne stacje oznaczono żółtymi i czerwonymi punktami na mapie.

Najedź kursorem aby zobaczyć nazwę stacji.

Kliknij aby zobaczyć obserwacje i prognozy pogody.

Aby zmienić mapę: kliknij na zielony przycisk z czarnym krzyżykiem, aby powiększyć; na zielony przycisk z myślnikiem, aby pomniejszyć; na zielone strzałki, aby przejść do map sąsiednich.


METAR-TAF: